sensor_id;sensor_type;location;lat;lon;timestamp;P1;durP1;ratioP1;P2;durP2;ratioP2
8040;SDS011;4063;48.140;10.250;2022-09-12T00:01:56;6.33;;;5.73;;
8040;SDS011;4063;48.140;10.250;2022-09-12T00:04:22;6.80;;;6.20;;
8040;SDS011;4063;48.140;10.250;2022-09-12T00:06:49;8.07;;;5.63;;
8040;SDS011;4063;48.140;10.250;2022-09-12T00:09:15;6.47;;;5.87;;
8040;SDS011;4063;48.140;10.250;2022-09-12T00:11:42;8.20;;;5.83;;
8040;SDS011;4063;48.140;10.250;2022-09-12T00:14:11;6.17;;;5.67;;
8040;SDS011;4063;48.140;10.250;2022-09-12T00:16:37;31.30;;;15.37;;
8040;SDS011;4063;48.140;10.250;2022-09-12T00:19:04;52.17;;;25.57;;
8040;SDS011;4063;48.140;10.250;2022-09-12T00:21:33;53.93;;;29.63;;
8040;SDS011;4063;48.140;10.250;2022-09-12T00:23:59;16.37;;;11.00;;
8040;SDS011;4063;48.140;10.250;2022-09-12T00:26:26;9.10;;;7.93;;
8040;SDS011;4063;48.140;10.250;2022-09-12T00:28:52;7.40;;;6.60;;
8040;SDS011;4063;48.140;10.250;2022-09-12T00:31:19;11.70;;;6.97;;
8040;SDS011;4063;48.140;10.250;2022-09-12T00:33:45;6.40;;;5.83;;
8040;SDS011;4063;48.140;10.250;2022-09-12T00:36:13;6.63;;;6.03;;
8040;SDS011;4063;48.140;10.250;2022-09-12T00:38:39;7.63;;;5.87;;
8040;SDS011;4063;48.140;10.250;2022-09-12T00:41:20;5.50;;;5.10;;
8040;SDS011;4063;48.140;10.250;2022-09-12T00:43:48;7.60;;;5.67;;
8040;SDS011;4063;48.140;10.250;2022-09-12T00:48:44;5.97;;;5.47;;
8040;SDS011;4063;48.140;10.250;2022-09-12T00:51:12;5.33;;;4.80;;
8040;SDS011;4063;48.140;10.250;2022-09-12T00:53:39;5.70;;;5.17;;
8040;SDS011;4063;48.140;10.250;2022-09-12T00:56:06;9.80;;;5.80;;
8040;SDS011;4063;48.140;10.250;2022-09-12T00:58:36;6.27;;;5.60;;
8040;SDS011;4063;48.140;10.250;2022-09-12T01:01:04;5.70;;;5.20;;
8040;SDS011;4063;48.140;10.250;2022-09-12T01:03:30;5.83;;;5.20;;
8040;SDS011;4063;48.140;10.250;2022-09-12T01:08:26;6.87;;;5.57;;
8040;SDS011;4063;48.140;10.250;2022-09-12T01:10:53;5.70;;;5.13;;
8040;SDS011;4063;48.140;10.250;2022-09-12T01:13:19;5.80;;;5.30;;
8040;SDS011;4063;48.140;10.250;2022-09-12T01:15:45;5.50;;;5.10;;
8040;SDS011;4063;48.140;10.250;2022-09-12T01:18:17;5.63;;;5.13;;
8040;SDS011;4063;48.140;10.250;2022-09-12T01:33:28;4.40;;;4.00;;
8040;SDS011;4063;48.140;10.250;2022-09-12T01:38:37;4.80;;;4.40;;
8040;SDS011;4063;48.140;10.250;2022-09-12T01:41:13;4.67;;;4.10;;
8040;SDS011;4063;48.140;10.250;2022-09-12T01:43:43;5.03;;;4.63;;
8040;SDS011;4063;48.140;10.250;2022-09-12T01:46:15;4.73;;;4.33;;
8040;SDS011;4063;48.140;10.250;2022-09-12T01:49:30;4.93;;;4.43;;
8040;SDS011;4063;48.140;10.250;2022-09-12T01:51:38;7.70;;;4.77;;
8040;SDS011;4063;48.140;10.250;2022-09-12T01:54:15;5.17;;;4.77;;
8040;SDS011;4063;48.140;10.250;2022-09-12T01:56:44;4.57;;;4.17;;
8040;SDS011;4063;48.140;10.250;2022-09-12T01:59:25;4.20;;;3.90;;
8040;SDS011;4063;48.140;10.250;2022-09-12T02:02:06;4.90;;;4.40;;
8040;SDS011;4063;48.140;10.250;2022-09-12T02:04:35;5.10;;;4.30;;
8040;SDS011;4063;48.140;10.250;2022-09-12T02:07:10;4.73;;;4.30;;
8040;SDS011;4063;48.140;10.250;2022-09-12T02:12:10;5.73;;;4.37;;
8040;SDS011;4063;48.140;10.250;2022-09-12T02:14:39;4.40;;;4.00;;
8040;SDS011;4063;48.140;10.250;2022-09-12T02:17:07;4.50;;;4.10;;
8040;SDS011;4063;48.140;10.250;2022-09-12T02:19:45;5.20;;;4.20;;
8040;SDS011;4063;48.140;10.250;2022-09-12T02:22:13;4.53;;;4.13;;
8040;SDS011;4063;48.140;10.250;2022-09-12T02:24:41;4.90;;;3.90;;
8040;SDS011;4063;48.140;10.250;2022-09-12T02:27:09;4.17;;;3.77;;
8040;SDS011;4063;48.140;10.250;2022-09-12T02:29:37;4.30;;;3.90;;
8040;SDS011;4063;48.140;10.250;2022-09-12T02:32:04;3.87;;;3.57;;
8040;SDS011;4063;48.140;10.250;2022-09-12T02:34:44;4.40;;;4.07;;
8040;SDS011;4063;48.140;10.250;2022-09-12T02:39:50;4.50;;;4.10;;
8040;SDS011;4063;48.140;10.250;2022-09-12T02:42:19;4.33;;;3.93;;
8040;SDS011;4063;48.140;10.250;2022-09-12T02:44:45;4.60;;;4.20;;
8040;SDS011;4063;48.140;10.250;2022-09-12T02:47:16;4.43;;;4.03;;
8040;SDS011;4063;48.140;10.250;2022-09-12T02:49:43;4.27;;;3.87;;
8040;SDS011;4063;48.140;10.250;2022-09-12T02:52:09;4.30;;;3.90;;
8040;SDS011;4063;48.140;10.250;2022-09-12T02:54:35;4.00;;;3.70;;
8040;SDS011;4063;48.140;10.250;2022-09-12T02:57:02;3.67;;;3.37;;
8040;SDS011;4063;48.140;10.250;2022-09-12T02:59:28;4.20;;;3.17;;
8040;SDS011;4063;48.140;10.250;2022-09-12T03:04:44;3.47;;;3.17;;
8040;SDS011;4063;48.140;10.250;2022-09-12T03:14:51;4.90;;;3.60;;
8040;SDS011;4063;48.140;10.250;2022-09-12T03:20:14;5.70;;;3.33;;
8040;SDS011;4063;48.140;10.250;2022-09-12T03:27:38;5.32;;;3.70;;
8040;SDS011;4063;48.140;10.250;2022-09-12T03:30:05;4.90;;;3.20;;
8040;SDS011;4063;48.140;10.250;2022-09-12T03:32:42;2.93;;;2.73;;
8040;SDS011;4063;48.140;10.250;2022-09-12T03:35:08;3.00;;;2.80;;
8040;SDS011;4063;48.140;10.250;2022-09-12T03:37:34;3.60;;;3.30;;
8040;SDS011;4063;48.140;10.250;2022-09-12T03:40:01;3.13;;;2.83;;
8040;SDS011;4063;48.140;10.250;2022-09-12T03:42:27;4.53;;;3.30;;
8040;SDS011;4063;48.140;10.250;2022-09-12T03:44:53;3.33;;;3.03;;
8040;SDS011;4063;48.140;10.250;2022-09-12T03:47:19;3.10;;;2.90;;
8040;SDS011;4063;48.140;10.250;2022-09-12T03:49:45;3.20;;;3.00;;
8040;SDS011;4063;48.140;10.250;2022-09-12T03:52:11;4.17;;;3.33;;
8040;SDS011;4063;48.140;10.250;2022-09-12T03:54:37;3.27;;;3.00;;
8040;SDS011;4063;48.140;10.250;2022-09-12T03:57:03;3.23;;;3.03;;
8040;SDS011;4063;48.140;10.250;2022-09-12T03:59:29;3.30;;;3.00;;
8040;SDS011;4063;48.140;10.250;2022-09-12T04:01:55;3.10;;;2.90;;
8040;SDS011;4063;48.140;10.250;2022-09-12T04:04:21;3.40;;;3.10;;
8040;SDS011;4063;48.140;10.250;2022-09-12T04:06:47;3.43;;;3.03;;
8040;SDS011;4063;48.140;10.250;2022-09-12T04:09:13;3.13;;;2.83;;
8040;SDS011;4063;48.140;10.250;2022-09-12T04:11:39;4.53;;;3.10;;
8040;SDS011;4063;48.140;10.250;2022-09-12T04:14:05;6.13;;;5.50;;
8040;SDS011;4063;48.140;10.250;2022-09-12T04:16:31;20.27;;;15.30;;
8040;SDS011;4063;48.140;10.250;2022-09-12T04:18:57;16.53;;;12.27;;
8040;SDS011;4063;48.140;10.250;2022-09-12T04:21:23;24.40;;;18.30;;
8040;SDS011;4063;48.140;10.250;2022-09-12T04:23:50;12.50;;;10.97;;
8040;SDS011;4063;48.140;10.250;2022-09-12T04:26:16;10.80;;;9.40;;
8040;SDS011;4063;48.140;10.250;2022-09-12T04:28:43;7.13;;;6.13;;
8040;SDS011;4063;48.140;10.250;2022-09-12T04:31:11;7.27;;;5.50;;
8040;SDS011;4063;48.140;10.250;2022-09-12T04:33:39;5.27;;;4.30;;
8040;SDS011;4063;48.140;10.250;2022-09-12T04:36:06;8.77;;;4.03;;
8040;SDS011;4063;48.140;10.250;2022-09-12T04:38:32;4.93;;;4.03;;
8040;SDS011;4063;48.140;10.250;2022-09-12T04:40:58;4.90;;;4.37;;
8040;SDS011;4063;48.140;10.250;2022-09-12T04:43:24;5.77;;;4.90;;
8040;SDS011;4063;48.140;10.250;2022-09-12T04:45:50;12.23;;;4.90;;
8040;SDS011;4063;48.140;10.250;2022-09-12T04:48:16;5.60;;;4.50;;
8040;SDS011;4063;48.140;10.250;2022-09-12T04:50:42;10.63;;;4.97;;
8040;SDS011;4063;48.140;10.250;2022-09-12T04:53:08;12.30;;;4.37;;
8040;SDS011;4063;48.140;10.250;2022-09-12T04:55:34;33.27;;;4.73;;
8040;SDS011;4063;48.140;10.250;2022-09-12T04:58:00;25.13;;;4.53;;
8040;SDS011;4063;48.140;10.250;2022-09-12T05:00:26;8.50;;;4.30;;
8040;SDS011;4063;48.140;10.250;2022-09-12T05:02:53;5.07;;;3.77;;
8040;SDS011;4063;48.140;10.250;2022-09-12T05:05:19;4.90;;;3.97;;
8040;SDS011;4063;48.140;10.250;2022-09-12T05:07:45;5.23;;;4.47;;
8040;SDS011;4063;48.140;10.250;2022-09-12T05:10:11;6.00;;;4.33;;
8040;SDS011;4063;48.140;10.250;2022-09-12T05:12:37;4.73;;;3.90;;
8040;SDS011;4063;48.140;10.250;2022-09-12T05:15:04;3.90;;;3.50;;
8040;SDS011;4063;48.140;10.250;2022-09-12T05:17:30;4.20;;;3.67;;
8040;SDS011;4063;48.140;10.250;2022-09-12T05:19:56;3.67;;;3.37;;
8040;SDS011;4063;48.140;10.250;2022-09-12T05:22:22;4.93;;;3.50;;
8040;SDS011;4063;48.140;10.250;2022-09-12T05:24:48;7.70;;;3.97;;
8040;SDS011;4063;48.140;10.250;2022-09-12T05:27:14;3.77;;;3.37;;
8040;SDS011;4063;48.140;10.250;2022-09-12T05:29:40;2.70;;;2.50;;
8040;SDS011;4063;48.140;10.250;2022-09-12T05:32:07;2.50;;;2.30;;
8040;SDS011;4063;48.140;10.250;2022-09-12T05:34:33;4.77;;;2.33;;
8040;SDS011;4063;48.140;10.250;2022-09-12T05:36:59;2.80;;;2.60;;
8040;SDS011;4063;48.140;10.250;2022-09-12T05:39:25;2.80;;;2.60;;
8040;SDS011;4063;48.140;10.250;2022-09-12T05:41:51;3.90;;;3.20;;
8040;SDS011;4063;48.140;10.250;2022-09-12T05:44:18;3.20;;;3.00;;
8040;SDS011;4063;48.140;10.250;2022-09-12T05:46:44;3.17;;;2.97;;
8040;SDS011;4063;48.140;10.250;2022-09-12T05:49:14;4.73;;;3.00;;
8040;SDS011;4063;48.140;10.250;2022-09-12T05:51:41;3.40;;;3.00;;
8040;SDS011;4063;48.140;10.250;2022-09-12T05:54:08;3.97;;;3.13;;
8040;SDS011;4063;48.140;10.250;2022-09-12T05:56:36;5.60;;;3.33;;
8040;SDS011;4063;48.140;10.250;2022-09-12T05:59:04;3.90;;;3.03;;
8040;SDS011;4063;48.140;10.250;2022-09-12T06:01:31;7.93;;;3.40;;
8040;SDS011;4063;48.140;10.250;2022-09-12T06:03:58;5.73;;;3.40;;
8040;SDS011;4063;48.140;10.250;2022-09-12T06:06:25;5.83;;;3.83;;
8040;SDS011;4063;48.140;10.250;2022-09-12T06:08:52;3.80;;;3.50;;
8040;SDS011;4063;48.140;10.250;2022-09-12T06:11:22;3.47;;;3.10;;
8040;SDS011;4063;48.140;10.250;2022-09-12T06:13:50;3.50;;;3.20;;
8040;SDS011;4063;48.140;10.250;2022-09-12T06:16:17;3.43;;;3.10;;
8040;SDS011;4063;48.140;10.250;2022-09-12T06:18:47;3.37;;;3.07;;
8040;SDS011;4063;48.140;10.250;2022-09-12T06:21:13;3.00;;;2.80;;
8040;SDS011;4063;48.140;10.250;2022-09-12T06:23:39;3.37;;;2.87;;
8040;SDS011;4063;48.140;10.250;2022-09-12T06:26:06;4.93;;;2.60;;
8040;SDS011;4063;48.140;10.250;2022-09-12T06:28:36;2.80;;;2.60;;
8040;SDS011;4063;48.140;10.250;2022-09-12T06:31:09;3.00;;;2.70;;
8040;SDS011;4063;48.140;10.250;2022-09-12T06:33:36;4.70;;;3.20;;
8040;SDS011;4063;48.140;10.250;2022-09-12T06:36:06;3.43;;;3.13;;
8040;SDS011;4063;48.140;10.250;2022-09-12T06:38:32;4.00;;;3.70;;
8040;SDS011;4063;48.140;10.250;2022-09-12T06:40:59;4.87;;;4.30;;
8040;SDS011;4063;48.140;10.250;2022-09-12T06:43:26;5.13;;;4.73;;
8040;SDS011;4063;48.140;10.250;2022-09-12T06:45:53;4.60;;;4.20;;
8040;SDS011;4063;48.140;10.250;2022-09-12T06:48:20;5.23;;;4.73;;
8040;SDS011;4063;48.140;10.250;2022-09-12T06:50:59;5.80;;;4.93;;
8040;SDS011;4063;48.140;10.250;2022-09-12T06:53:26;7.63;;;4.60;;
8040;SDS011;4063;48.140;10.250;2022-09-12T06:55:56;6.20;;;5.53;;
8040;SDS011;4063;48.140;10.250;2022-09-12T06:58:23;5.70;;;5.10;;
8040;SDS011;4063;48.140;10.250;2022-09-12T07:00:49;6.07;;;5.43;;
8040;SDS011;4063;48.140;10.250;2022-09-12T07:03:15;8.67;;;5.80;;
8040;SDS011;4063;48.140;10.250;2022-09-12T07:05:41;6.80;;;6.10;;
8040;SDS011;4063;48.140;10.250;2022-09-12T07:08:06;6.90;;;5.33;;
8040;SDS011;4063;48.140;10.250;2022-09-12T07:10:32;6.47;;;5.83;;
8040;SDS011;4063;48.140;10.250;2022-09-12T07:12:58;11.83;;;6.00;;
8040;SDS011;4063;48.140;10.250;2022-09-12T07:15:24;6.57;;;5.97;;
8040;SDS011;4063;48.140;10.250;2022-09-12T07:17:51;6.32;;;5.75;;
8040;SDS011;4063;48.140;10.250;2022-09-12T07:20:17;6.28;;;5.68;;
8040;SDS011;4063;48.140;10.250;2022-09-12T07:22:43;6.33;;;5.83;;
8040;SDS011;4063;48.140;10.250;2022-09-12T07:25:09;7.07;;;5.32;;
8040;SDS011;4063;48.140;10.250;2022-09-12T07:27:35;6.00;;;5.50;;
8040;SDS011;4063;48.140;10.250;2022-09-12T07:30:02;8.43;;;5.77;;
8040;SDS011;4063;48.140;10.250;2022-09-12T07:32:28;8.63;;;5.43;;
8040;SDS011;4063;48.140;10.250;2022-09-12T07:34:54;6.63;;;5.37;;
8040;SDS011;4063;48.140;10.250;2022-09-12T07:37:20;9.75;;;5.78;;
8040;SDS011;4063;48.140;10.250;2022-09-12T07:39:46;6.67;;;5.33;;
8040;SDS011;4063;48.140;10.250;2022-09-12T07:42:12;9.13;;;5.78;;
8040;SDS011;4063;48.140;10.250;2022-09-12T07:44:38;7.40;;;5.95;;
8040;SDS011;4063;48.140;10.250;2022-09-12T07:47:04;6.15;;;5.55;;
8040;SDS011;4063;48.140;10.250;2022-09-12T07:49:30;8.38;;;4.90;;
8040;SDS011;4063;48.140;10.250;2022-09-12T07:51:56;5.93;;;5.13;;
8040;SDS011;4063;48.140;10.250;2022-09-12T07:54:22;6.80;;;4.63;;
8040;SDS011;4063;48.140;10.250;2022-09-12T07:56:48;6.10;;;4.35;;
8040;SDS011;4063;48.140;10.250;2022-09-12T07:59:14;5.22;;;4.72;;
8040;SDS011;4063;48.140;10.250;2022-09-12T08:01:41;5.32;;;4.88;;
8040;SDS011;4063;48.140;10.250;2022-09-12T08:04:07;4.30;;;3.30;;
8040;SDS011;4063;48.140;10.250;2022-09-12T08:06:33;4.10;;;3.70;;
8040;SDS011;4063;48.140;10.250;2022-09-12T08:09:00;3.83;;;3.53;;
8040;SDS011;4063;48.140;10.250;2022-09-12T08:11:26;4.15;;;3.70;;
8040;SDS011;4063;48.140;10.250;2022-09-12T08:13:53;5.35;;;3.83;;
8040;SDS011;4063;48.140;10.250;2022-09-12T08:16:21;6.32;;;3.50;;
8040;SDS011;4063;48.140;10.250;2022-09-12T08:18:47;5.90;;;3.60;;
8040;SDS011;4063;48.140;10.250;2022-09-12T08:21:17;3.70;;;3.40;;
8040;SDS011;4063;48.140;10.250;2022-09-12T08:23:43;3.65;;;3.10;;
8040;SDS011;4063;48.140;10.250;2022-09-12T08:26:10;5.53;;;3.30;;
8040;SDS011;4063;48.140;10.250;2022-09-12T08:28:36;5.68;;;3.13;;
8040;SDS011;4063;48.140;10.250;2022-09-12T08:31:06;3.83;;;3.10;;
8040;SDS011;4063;48.140;10.250;2022-09-12T08:33:32;3.78;;;2.83;;
8040;SDS011;4063;48.140;10.250;2022-09-12T08:36:18;3.83;;;3.47;;
8040;SDS011;4063;48.140;10.250;2022-09-12T08:38:45;3.00;;;2.70;;
8040;SDS011;4063;48.140;10.250;2022-09-12T08:43:48;2.55;;;2.35;;
8040;SDS011;4063;48.140;10.250;2022-09-12T08:46:21;2.70;;;2.42;;
8040;SDS011;4063;48.140;10.250;2022-09-12T08:48:49;3.83;;;2.47;;
8040;SDS011;4063;48.140;10.250;2022-09-12T08:51:15;2.70;;;2.50;;
8040;SDS011;4063;48.140;10.250;2022-09-12T08:53:43;3.45;;;2.40;;
8040;SDS011;4063;48.140;10.250;2022-09-12T08:56:11;2.42;;;2.10;;
8040;SDS011;4063;48.140;10.250;2022-09-12T08:58:41;2.83;;;2.50;;
8040;SDS011;4063;48.140;10.250;2022-09-12T09:01:09;2.00;;;1.90;;
8040;SDS011;4063;48.140;10.250;2022-09-12T09:03:43;2.25;;;2.05;;
8040;SDS011;4063;48.140;10.250;2022-09-12T09:06:16;2.67;;;2.00;;
8040;SDS011;4063;48.140;10.250;2022-09-12T09:08:46;1.70;;;1.60;;
8040;SDS011;4063;48.140;10.250;2022-09-12T09:11:19;1.85;;;1.73;;
8040;SDS011;4063;48.140;10.250;2022-09-12T09:16:51;2.55;;;1.80;;
8040;SDS011;4063;48.140;10.250;2022-09-12T09:21:53;3.45;;;1.63;;
8040;SDS011;4063;48.140;10.250;2022-09-12T09:24:22;2.20;;;2.00;;
8040;SDS011;4063;48.140;10.250;2022-09-12T09:31:42;2.50;;;1.60;;
8040;SDS011;4063;48.140;10.250;2022-09-12T09:34:12;1.88;;;1.63;;
8040;SDS011;4063;48.140;10.250;2022-09-12T09:36:43;1.63;;;1.50;;
8040;SDS011;4063;48.140;10.250;2022-09-12T09:39:26;2.38;;;1.60;;
8040;SDS011;4063;48.140;10.250;2022-09-12T09:44:20;2.65;;;1.30;;
8040;SDS011;4063;48.140;10.250;2022-09-12T09:46:47;1.58;;;1.30;;
8040;SDS011;4063;48.140;10.250;2022-09-12T09:49:14;1.33;;;1.23;;
8040;SDS011;4063;48.140;10.250;2022-09-12T09:51:41;3.05;;;1.30;;
8040;SDS011;4063;48.140;10.250;2022-09-12T09:54:17;1.20;;;1.10;;
8040;SDS011;4063;48.140;10.250;2022-09-12T09:56:45;1.30;;;1.20;;
8040;SDS011;4063;48.140;10.250;2022-09-12T09:59:13;1.25;;;1.15;;
8040;SDS011;4063;48.140;10.250;2022-09-12T10:01:53;1.33;;;1.23;;
8040;SDS011;4063;48.140;10.250;2022-09-12T10:04:21;2.83;;;1.40;;
8040;SDS011;4063;48.140;10.250;2022-09-12T10:06:51;1.15;;;1.10;;
8040;SDS011;4063;48.140;10.250;2022-09-12T10:11:44;1.20;;;1.05;;
8040;SDS011;4063;48.140;10.250;2022-09-12T10:14:28;1.40;;;1.30;;
8040;SDS011;4063;48.140;10.250;2022-09-12T10:16:54;1.25;;;1.15;;
8040;SDS011;4063;48.140;10.250;2022-09-12T10:19:23;0.90;;;0.88;;
8040;SDS011;4063;48.140;10.250;2022-09-12T10:21:49;1.63;;;1.20;;
8040;SDS011;4063;48.140;10.250;2022-09-12T10:24:33;1.35;;;1.10;;
8040;SDS011;4063;48.140;10.250;2022-09-12T10:29:53;1.23;;;1.17;;
8040;SDS011;4063;48.140;10.250;2022-09-12T10:32:25;1.30;;;1.20;;
8040;SDS011;4063;48.140;10.250;2022-09-12T10:34:54;1.85;;;1.20;;
8040;SDS011;4063;48.140;10.250;2022-09-12T10:37:31;1.30;;;1.20;;
8040;SDS011;4063;48.140;10.250;2022-09-12T10:39:58;1.50;;;1.10;;
8040;SDS011;4063;48.140;10.250;2022-09-12T10:47:45;3.92;;;1.20;;
8040;SDS011;4063;48.140;10.250;2022-09-12T10:50:18;2.13;;;1.20;;
8040;SDS011;4063;48.140;10.250;2022-09-12T10:52:44;2.55;;;1.27;;
8040;SDS011;4063;48.140;10.250;2022-09-12T10:55:12;1.75;;;1.38;;
8040;SDS011;4063;48.140;10.250;2022-09-12T11:00:12;1.23;;;1.13;;
8040;SDS011;4063;48.140;10.250;2022-09-12T11:02:47;1.67;;;1.15;;
8040;SDS011;4063;48.140;10.250;2022-09-12T11:05:14;1.88;;;1.15;;
8040;SDS011;4063;48.140;10.250;2022-09-12T11:07:47;1.30;;;1.08;;
8040;SDS011;4063;48.140;10.250;2022-09-12T11:13:00;1.45;;;1.20;;
8040;SDS011;4063;48.140;10.250;2022-09-12T11:17:59;1.60;;;1.50;;
8040;SDS011;4063;48.140;10.250;2022-09-12T11:20:32;2.20;;;1.15;;
8040;SDS011;4063;48.140;10.250;2022-09-12T11:25:50;4.53;;;1.35;;
8040;SDS011;4063;48.140;10.250;2022-09-12T11:31:05;1.48;;;1.38;;
8040;SDS011;4063;48.140;10.250;2022-09-12T11:33:43;2.67;;;2.47;;
8040;SDS011;4063;48.140;10.250;2022-09-12T11:36:32;1.83;;;1.20;;
8040;SDS011;4063;48.140;10.250;2022-09-12T11:39:12;1.45;;;1.35;;
8040;SDS011;4063;48.140;10.250;2022-09-12T11:41:43;1.17;;;1.08;;
8040;SDS011;4063;48.140;10.250;2022-09-12T11:46:38;1.77;;;1.23;;
8040;SDS011;4063;48.140;10.250;2022-09-12T11:49:09;1.20;;;1.10;;
8040;SDS011;4063;48.140;10.250;2022-09-12T11:54:45;3.13;;;1.25;;
8040;SDS011;4063;48.140;10.250;2022-09-12T11:57:24;1.75;;;1.08;;
8040;SDS011;4063;48.140;10.250;2022-09-12T12:02:25;1.50;;;1.20;;
8040;SDS011;4063;48.140;10.250;2022-09-12T12:04:58;1.58;;;1.08;;
8040;SDS011;4063;48.140;10.250;2022-09-12T12:07:26;1.90;;;1.42;;
8040;SDS011;4063;48.140;10.250;2022-09-12T12:09:55;1.23;;;1.15;;
8040;SDS011;4063;48.140;10.250;2022-09-12T12:12:22;1.63;;;1.20;;
8040;SDS011;4063;48.140;10.250;2022-09-12T12:14:51;1.20;;;1.10;;
8040;SDS011;4063;48.140;10.250;2022-09-12T12:17:18;1.20;;;1.10;;
8040;SDS011;4063;48.140;10.250;2022-09-12T12:19:45;1.38;;;1.27;;
8040;SDS011;4063;48.140;10.250;2022-09-12T12:22:19;2.38;;;1.25;;
8040;SDS011;4063;48.140;10.250;2022-09-12T12:28:01;1.27;;;1.17;;
8040;SDS011;4063;48.140;10.250;2022-09-12T12:32:57;1.55;;;1.17;;
8040;SDS011;4063;48.140;10.250;2022-09-12T12:36:00;1.58;;;1.30;;
8040;SDS011;4063;48.140;10.250;2022-09-12T12:38:27;1.23;;;1.00;;
8040;SDS011;4063;48.140;10.250;2022-09-12T12:41:12;1.23;;;0.93;;
8040;SDS011;4063;48.140;10.250;2022-09-12T12:43:39;1.02;;;1.00;;
8040;SDS011;4063;48.140;10.250;2022-09-12T12:46:07;0.77;;;0.77;;
8040;SDS011;4063;48.140;10.250;2022-09-12T12:48:35;2.35;;;0.90;;
8040;SDS011;4063;48.140;10.250;2022-09-12T12:51:44;1.00;;;1.00;;
8040;SDS011;4063;48.140;10.250;2022-09-12T12:54:02;1.85;;;0.80;;
8040;SDS011;4063;48.140;10.250;2022-09-12T12:58:58;1.15;;;0.77;;
8040;SDS011;4063;48.140;10.250;2022-09-12T13:01:24;1.20;;;0.80;;
8040;SDS011;4063;48.140;10.250;2022-09-12T13:04:01;1.67;;;0.90;;
8040;SDS011;4063;48.140;10.250;2022-09-12T13:06:30;0.73;;;0.73;;
8040;SDS011;4063;48.140;10.250;2022-09-12T13:09:02;3.72;;;1.00;;
8040;SDS011;4063;48.140;10.250;2022-09-12T13:11:30;2.38;;;1.10;;
8040;SDS011;4063;48.140;10.250;2022-09-12T13:13:58;1.85;;;0.90;;
8040;SDS011;4063;48.140;10.250;2022-09-12T13:18:56;1.95;;;0.93;;
8040;SDS011;4063;48.140;10.250;2022-09-12T13:21:26;1.17;;;0.80;;
8040;SDS011;4063;48.140;10.250;2022-09-12T13:23:59;0.80;;;0.80;;
8040;SDS011;4063;48.140;10.250;2022-09-12T13:26:26;0.95;;;0.90;;
8040;SDS011;4063;48.140;10.250;2022-09-12T13:29:13;0.80;;;0.80;;
8040;SDS011;4063;48.140;10.250;2022-09-12T13:31:40;1.45;;;0.80;;
8040;SDS011;4063;48.140;10.250;2022-09-12T13:34:06;0.70;;;0.70;;
8040;SDS011;4063;48.140;10.250;2022-09-12T13:36:40;1.20;;;0.88;;
8040;SDS011;4063;48.140;10.250;2022-09-12T13:39:13;0.90;;;0.80;;
8040;SDS011;4063;48.140;10.250;2022-09-12T13:44:12;1.00;;;0.85;;
8040;SDS011;4063;48.140;10.250;2022-09-12T13:46:40;2.28;;;0.90;;
8040;SDS011;4063;48.140;10.250;2022-09-12T13:51:44;1.00;;;0.90;;
8040;SDS011;4063;48.140;10.250;2022-09-12T13:54:14;1.20;;;1.10;;
8040;SDS011;4063;48.140;10.250;2022-09-12T13:56:48;4.07;;;1.13;;
8040;SDS011;4063;48.140;10.250;2022-09-12T13:59:14;1.27;;;1.10;;
8040;SDS011;4063;48.140;10.250;2022-09-12T14:01:41;0.77;;;0.77;;
8040;SDS011;4063;48.140;10.250;2022-09-12T14:04:14;0.90;;;0.90;;
8040;SDS011;4063;48.140;10.250;2022-09-12T14:07:00;1.10;;;1.00;;
8040;SDS011;4063;48.140;10.250;2022-09-12T14:11:54;0.77;;;0.77;;
8040;SDS011;4063;48.140;10.250;2022-09-12T14:16:51;1.52;;;0.90;;
8040;SDS011;4063;48.140;10.250;2022-09-12T14:19:17;0.88;;;0.85;;
8040;SDS011;4063;48.140;10.250;2022-09-12T14:21:43;0.93;;;0.85;;
8040;SDS011;4063;48.140;10.250;2022-09-12T14:24:10;2.35;;;1.10;;
8040;SDS011;4063;48.140;10.250;2022-09-12T14:26:37;1.52;;;0.70;;
8040;SDS011;4063;48.140;10.250;2022-09-12T14:29:04;0.80;;;0.70;;
8040;SDS011;4063;48.140;10.250;2022-09-12T14:31:37;1.10;;;0.93;;
8040;SDS011;4063;48.140;10.250;2022-09-12T14:34:17;1.38;;;1.20;;
8040;SDS011;4063;48.140;10.250;2022-09-12T14:36:50;5.57;;;2.78;;
8040;SDS011;4063;48.140;10.250;2022-09-12T14:41:44;1.65;;;1.05;;
8040;SDS011;4063;48.140;10.250;2022-09-12T14:44:18;1.17;;;1.00;;
8040;SDS011;4063;48.140;10.250;2022-09-12T14:46:45;1.08;;;0.90;;
8040;SDS011;4063;48.140;10.250;2022-09-12T14:49:16;1.75;;;0.98;;
8040;SDS011;4063;48.140;10.250;2022-09-12T14:51:59;2.33;;;0.90;;
8040;SDS011;4063;48.140;10.250;2022-09-12T14:56:53;1.27;;;0.85;;
8040;SDS011;4063;48.140;10.250;2022-09-12T15:07:34;0.80;;;0.80;;
8040;SDS011;4063;48.140;10.250;2022-09-12T15:10:02;0.80;;;0.77;;
8040;SDS011;4063;48.140;10.250;2022-09-12T15:12:28;1.45;;;1.02;;
8040;SDS011;4063;48.140;10.250;2022-09-12T15:15:13;1.65;;;1.00;;
8040;SDS011;4063;48.140;10.250;2022-09-12T15:17:40;0.70;;;0.65;;
8040;SDS011;4063;48.140;10.250;2022-09-12T15:20:06;1.00;;;0.70;;
8040;SDS011;4063;48.140;10.250;2022-09-12T15:22:34;1.10;;;1.10;;
8040;SDS011;4063;48.140;10.250;2022-09-12T15:25:01;1.30;;;0.90;;
8040;SDS011;4063;48.140;10.250;2022-09-12T15:27:27;5.25;;;1.05;;
8040;SDS011;4063;48.140;10.250;2022-09-12T15:29:53;2.85;;;1.30;;
8040;SDS011;4063;48.140;10.250;2022-09-12T15:32:22;1.00;;;0.90;;
8040;SDS011;4063;48.140;10.250;2022-09-12T15:34:49;1.40;;;0.93;;
8040;SDS011;4063;48.140;10.250;2022-09-12T15:37:15;1.08;;;0.98;;
8040;SDS011;4063;48.140;10.250;2022-09-12T15:39:41;1.17;;;0.90;;
8040;SDS011;4063;48.140;10.250;2022-09-12T15:42:08;1.48;;;1.00;;
8040;SDS011;4063;48.140;10.250;2022-09-12T15:44:34;1.27;;;1.00;;
8040;SDS011;4063;48.140;10.250;2022-09-12T15:47:00;1.23;;;0.95;;
8040;SDS011;4063;48.140;10.250;2022-09-12T15:49:26;0.80;;;0.80;;
8040;SDS011;4063;48.140;10.250;2022-09-12T15:51:52;0.77;;;0.77;;
8040;SDS011;4063;48.140;10.250;2022-09-12T15:54:18;1.27;;;0.93;;
8040;SDS011;4063;48.140;10.250;2022-09-12T15:56:45;1.77;;;1.00;;
8040;SDS011;4063;48.140;10.250;2022-09-12T15:59:11;1.35;;;1.00;;
8040;SDS011;4063;48.140;10.250;2022-09-12T16:01:37;2.03;;;1.20;;
8040;SDS011;4063;48.140;10.250;2022-09-12T16:04:08;0.98;;;0.95;;
8040;SDS011;4063;48.140;10.250;2022-09-12T16:06:43;0.70;;;0.70;;
8040;SDS011;4063;48.140;10.250;2022-09-12T16:09:09;1.15;;;0.85;;
8040;SDS011;4063;48.140;10.250;2022-09-12T16:11:35;1.02;;;1.02;;
8040;SDS011;4063;48.140;10.250;2022-09-12T16:14:03;1.00;;;0.90;;
8040;SDS011;4063;48.140;10.250;2022-09-12T16:16:29;2.10;;;0.90;;
8040;SDS011;4063;48.140;10.250;2022-09-12T16:18:56;0.80;;;0.80;;
8040;SDS011;4063;48.140;10.250;2022-09-12T16:21:22;1.58;;;0.80;;
8040;SDS011;4063;48.140;10.250;2022-09-12T16:23:49;0.82;;;0.80;;
8040;SDS011;4063;48.140;10.250;2022-09-12T16:26:15;2.95;;;0.88;;
8040;SDS011;4063;48.140;10.250;2022-09-12T16:28:41;1.10;;;1.00;;
8040;SDS011;4063;48.140;10.250;2022-09-12T16:31:09;0.88;;;0.82;;
8040;SDS011;4063;48.140;10.250;2022-09-12T16:33:36;0.95;;;0.95;;
8040;SDS011;4063;48.140;10.250;2022-09-12T16:36:03;2.05;;;1.55;;
8040;SDS011;4063;48.140;10.250;2022-09-12T16:38:30;1.20;;;0.70;;
8040;SDS011;4063;48.140;10.250;2022-09-12T16:41:02;1.02;;;0.70;;
8040;SDS011;4063;48.140;10.250;2022-09-12T16:43:29;1.85;;;0.80;;
8040;SDS011;4063;48.140;10.250;2022-09-12T16:46:02;1.13;;;0.98;;
8040;SDS011;4063;48.140;10.250;2022-09-12T16:48:29;0.80;;;0.80;;
8040;SDS011;4063;48.140;10.250;2022-09-12T16:50:58;3.08;;;1.00;;
8040;SDS011;4063;48.140;10.250;2022-09-12T16:53:26;1.65;;;0.63;;
8040;SDS011;4063;48.140;10.250;2022-09-12T16:55:54;0.82;;;0.82;;
8040;SDS011;4063;48.140;10.250;2022-09-12T16:58:20;1.13;;;1.00;;
8040;SDS011;4063;48.140;10.250;2022-09-12T17:00:46;2.10;;;1.00;;
8040;SDS011;4063;48.140;10.250;2022-09-12T17:03:12;0.98;;;0.98;;
8040;SDS011;4063;48.140;10.250;2022-09-12T17:05:40;1.33;;;1.10;;
8040;SDS011;4063;48.140;10.250;2022-09-12T17:08:06;1.10;;;1.00;;
8040;SDS011;4063;48.140;10.250;2022-09-12T17:10:33;1.48;;;1.08;;
8040;SDS011;4063;48.140;10.250;2022-09-12T17:12:59;1.33;;;1.10;;
8040;SDS011;4063;48.140;10.250;2022-09-12T17:15:26;1.65;;;1.10;;